Latest Weather Observations for Armidale Airport

IDN60801

Issued at 2:35 am EDT Friday 28 November 2014 (issued every 30 minutes, with the page automatically refreshed every 10 minutes)

About weather observations | Map of weather stations | Latest weather observations for NSW | Other Formats
Station Details ID: 056238 Name: ARMIDALE AIRPORT AWS Lat: -30.53 Lon: 151.62 Height: 1079.0 m
Data from the previous 72 hours. | See also: Recent months for locations in New South Wales
Date/Time
EDT
Temp
°C
App
Temp
°C
Dew
Point
Rel
Hum
%
Delta-T
°C
Wind Press
QNH
hPa
Press
MSL
hPa
Rain
since 9 am
mm
Dir
 
Spd
km/h
Gust
km/h
Spd
kts
Gust
kts
28/02:30am 12.7 8.4 10.6 87 1.2 E 24 33 13 18 1022.1 1017.8 0.4
28/02:13am 12.7 9.1 10.6 87 1.2 E 20 26 11 14 1022.2 1017.9 0.4
28/02:00am 12.6 7.4 10.3 86 1.3 E 28 39 15 21 1022.4 1018.1 0.4
28/01:57am 12.7 7.5 10.4 86 1.3 E 28 39 15 21 1022.5 1018.2 0.4
28/01:30am 12.6 7.4 10.1 85 1.4 ENE 28 37 15 20 1022.6 1018.3 0.4
28/01:00am 12.6 8.7 10.7 88 1.0 ENE 22 32 12 17 1022.8 1018.5 0.4
28/12:30am 12.4 7.6 10.3 87 1.1 E 26 35 14 19 1022.9 1018.6 0.4
28/12:25am 12.3 7.8 10.2 87 1.1 E 24 35 13 19 1023.0 1018.7 0.4
28/12:00am 12.0 7.0 9.7 86 1.2 E 26 39 14 21 1023.1 1018.8 0.4
 
Date/Time
EDT
Temp
°C
App
Temp
°C
Dew
Point
Rel
Hum
%
Delta-T
°C
Wind Press
QNH
hPa
Press
MSL
hPa
Rain
since 9 am
mm
Dir
 
Spd
km/h
Gust
km/h
Spd
kts
Gust
kts
27/11:30pm 12.3 7.3 9.7 84 1.4 E 26 35 14 19 1023.4 1019.1 0.4
27/11:00pm 12.4 8.8 10.6 89 1.0 E 20 28 11 15 1023.4 1019.1 0.4
27/10:30pm 12.1 8.7 10.7 91 0.8 E 19 26 10 14 1023.4 1019.1 0.4
27/10:00pm 12.4 8.7 10.3 87 1.1 E 20 26 11 14 1023.4 1019.1 0.4
27/09:30pm 12.7 8.6 10.2 85 1.4 E 22 32 12 17 1023.4 1019.1 0.4
27/09:00pm 13.3 8.6 10.7 84 1.4 E 26 35 14 19 1023.4 1019.1 0.4
27/08:30pm 13.3 8.7 11.0 86 1.3 E 26 41 14 22 1023.1 1018.8 0.4
27/08:00pm 13.7 9.5 12.4 92 0.7 E 26 37 14 20 1022.8 1018.5 0.4
27/07:41pm 13.7 9.8 13.2 97 0.3 E 26 37 14 20 1022.7 1018.4 0.4
27/07:30pm 13.7 9.5 13.4 98 0.2 E 28 41 15 22 1022.6 1018.3 0.4
27/07:12pm 13.7 9.5 13.4 98 0.2 E 28 41 15 22 1022.2 1017.9 0.4
27/07:00pm 13.9 10.1 13.7 99 0.1 E 26 39 14 21 1022.1 1017.8 0.4
27/06:30pm 14.7 10.8 14.4 98 0.2 E 28 37 15 20 1021.7 1017.4 0.2
27/06:27pm 14.8 10.8 14.2 96 0.4 E 28 37 15 20 1021.6 1017.3 0.2
27/06:00pm 15.8 11.0 12.9 83 1.7 ESE 30 39 16 21 1020.9 1016.6 0.2
27/05:58pm 16.0 11.3 13.1 83 1.7 ESE 30 39 16 21 1020.8 1016.5 0.2
27/05:30pm 17.9 12.9 13.4 75 2.7 E 32 43 17 23 1020.4 1016.0 0.2
27/05:00pm 18.9 13.8 13.1 69 3.4 E 32 41 17 22 1019.9 1015.6 0.2
27/04:30pm 19.4 14.8 13.6 69 3.5 E 30 39 16 21 1019.8 1015.4 0.2
27/04:00pm 18.2 13.1 13.1 72 3.0 SE 32 46 17 25 1019.7 1015.3 0.2
27/03:30pm 21.1 15.6 12.5 58 5.1 ESE 33 52 18 28 1019.4 1015.0 0.2
27/03:13pm 21.8 16.4 12.1 54 5.7 E 32 57 17 31 1019.3 1014.9 0.2
27/03:00pm 24.3 20.2 11.3 44 7.7 E 24 39 13 21 1018.9 1014.5 0.2
27/02:30pm 23.4 18.8 9.8 42 7.8 ESE 24 30 13 16 1019.0 1014.7 0.2
27/02:00pm 24.8 20.8 8.3 35 9.3 ESE 19 24 10 13 1019.3 1014.9 0.2
27/01:30pm 25.1 21.6 5.3 28 10.6 SSW 13 24 7 13 1019.6 1015.2 0.2
27/01:00pm 25.7 21.0 5.3 27 10.9 SSW 19 24 10 13 1019.7 1015.3 0.2
27/12:30pm 24.3 20.2 6.1 31 9.8 NW 17 30 9 16 1019.9 1015.6 0.2
27/12:00pm 25.3 21.8 7.0 31 10.1 W 15 20 8 11 1020.3 1015.9 0.2
27/11:30am 24.6 20.3 6.8 32 9.7 W 19 28 10 15 1020.7 1016.4 0.2
27/11:00am 24.1 19.9 7.3 34 9.2 WSW 19 26 10 14 1020.9 1016.6 0.2
27/10:30am 22.9 20.4 9.7 43 7.5 WSW 13 26 7 14 1021.1 1016.8 0.2
27/10:00am 22.5 19.5 10.6 47 6.9 WSW 17 22 9 12 1021.4 1017.0 0.2
27/09:30am 22.0 18.8 11.4 51 6.2 W 19 30 10 16 1021.1 1016.8 0.0
27/09:00am 20.8 18.4 13.7 64 4.3 WNW 19 26 10 14 1021.1 1016.8 0.0
27/08:30am 20.2 18.3 15.2 73 3.1 WNW 19 22 10 12 1021.0 1016.7 0.0
27/08:00am 18.9 17.6 16.9 88 1.3 WNW 19 24 10 13 1020.7 1016.4 0.0
27/07:30am 17.7 16.6 17.4 98 0.2 NW 19 24 10 13 1020.4 1016.0 0.0
27/07:00am 16.9 16.4 16.9 100 0.0 NW 15 19 8 10 1020.0 1015.7 0.0
27/06:30am 16.1 14.9 16.1 100 0.0 NW 17 20 9 11 1019.8 1015.4 0.0
27/06:00am 15.4 13.9 15.4 100 0.0 WNW 17 22 9 12 1019.6 1015.2 0.0
27/05:38am 14.6 14.9 14.6 100 0.0 W 6 9 3 5 1019.5 1015.1 0.0
27/05:30am 14.8 15.0 14.8 100 0.0 WNW 7 9 4 5 1019.5 1015.1 0.0
27/05:29am 14.8 15.0 14.8 100 0.0 WNW 7 9 4 5 1019.5 1015.1 0.0
27/05:21am 14.8 15.0 14.8 100 0.0 WNW 7 11 4 6 1019.4 1015.0 0.0
27/05:15am 15.1 15.1 15.1 100 0.0 W 9 11 5 6 1019.4 1015.0 0.0
27/05:00am 14.6 14.8 14.6 100 0.0 W 7 7 4 4 1019.3 1014.9 0.0
27/04:56am 14.8 15.0 14.8 100 0.0 W 7 7 4 4 1019.4 1015.0 0.0
27/04:30am 15.0 14.9 15.0 100 0.0 NW 9 13 5 7 1019.0 1014.7 0.0
27/04:00am 15.4 15.5 15.4 100 0.0 W 9 11 5 6 1019.1 1014.8 0.0
27/03:30am 14.5 13.9 14.5 100 0.0 SSW 11 13 6 7 1019.1 1014.8 0.0
27/03:00am 14.3 14.0 14.3 100 0.0 NW 9 11 5 6 1018.9 1014.5 0.0
27/02:30am 14.7 14.1 14.7 100 0.0 NNW 11 15 6 8 1018.8 1014.4 0.0
27/02:00am 14.3 13.6 14.3 100 0.0 NW 11 13 6 7 1019.0 1014.7 0.0
27/01:55am 14.6 14.0 14.6 100 0.0 NNW 11 13 6 7 1019.1 1014.8 0.0
27/01:53am 14.3 13.6 14.3 100 0.0 NNW 11 13 6 7 1019.1 1014.8 0.0
27/01:33am 13.6 13.4 13.6 100 0.0 NE 7 9 4 5 1019.4 1015.0 0.0
27/01:30am 13.7 13.5 13.7 100 0.0 NE 7 9 4 5 1019.5 1015.1 0.0
27/01:00am 14.2 13.5 14.2 100 0.0 NNE 11 11 6 6 1019.8 1015.4 0.0
27/12:39am 14.3 14.0 14.3 100 0.0 NE 9 11 5 6 1020.0 1015.7 0.0
27/12:30am 14.3 14.0 14.3 100 0.0 ENE 9 11 5 6 1020.3 1015.9 0.0
27/12:29am 14.3 14.0 14.3 100 0.0 ENE 9 11 5 6 1020.3 1015.9 0.0
27/12:00am 14.3 14.0 14.3 100 0.0 E 9 11 5 6 1020.6 1016.2 0.0
 
Date/Time
EDT
Temp
°C
App
Temp
°C
Dew
Point
Rel
Hum
%
Delta-T
°C
Wind Press
QNH
hPa
Press
MSL
hPa
Rain
since 9 am
mm
Dir
 
Spd
km/h
Gust
km/h
Spd
kts
Gust
kts
26/11:52pm 14.0 13.9 14.0 100 0.0 E 7 9 4 5 1020.6 1016.2 0.0
26/11:40pm 14.2 14.1 14.0 99 0.1 E 7 13 4 7 1020.7 1016.4 0.0
26/11:30pm 14.7 15.0 14.5 99 0.1 E 6 9 3 5 1020.8 1016.5 0.0
26/11:00pm 14.6 16.0 14.4 99 0.1 CALM 0 0 0 0 1020.7 1016.4 0.0
26/10:30pm 15.1 16.7 14.9 99 0.1 CALM 0 0 0 0 1020.7 1016.4 0.0
26/10:00pm 15.4 17.1 15.2 99 0.1 CALM 0 0 0 0 1020.8 1016.5 0.0
26/09:30pm 15.3 15.2 15.0 98 0.2 ENE 9 11 5 6 1020.5 1016.1 0.0
26/09:00pm 16.4 16.3 16.1 98 0.2 E 11 15 6 8 1020.3 1015.9 0.0
26/08:30pm 16.9 16.4 15.8 93 0.7 E 13 15 7 8 1020.1 1015.8 0.0
26/08:00pm 17.6 16.8 15.0 85 1.6 E 13 15 7 8 1020.0 1015.7 0.0
26/07:30pm 18.5 17.7 14.0 75 2.7 E 11 13 6 7 1019.9 1015.6 0.0
26/07:00pm 19.0 18.2 15.1 78 2.4 E 13 17 7 9 1019.7 1015.3 0.0
26/06:30pm 19.5 18.0 15.4 77 2.5 E 17 20 9 11 1019.4 1015.0 0.0
26/06:00pm 19.9 18.6 15.7 77 2.6 ENE 17 22 9 12 1019.0 1014.7 0.0
26/05:30pm 20.4 19.1 15.8 75 2.9 E 17 19 9 10 1018.8 1014.4 0.0
26/05:00pm 20.9 19.6 15.9 73 3.1 ENE 17 20 9 11 1018.7 1014.3 0.0
26/04:30pm 20.7 19.7 15.7 73 3.1 ESE 15 19 8 10 1018.7 1014.3 0.0
26/04:00pm 21.5 20.2 15.8 70 3.6 ENE 17 20 9 11 1018.8 1014.4 0.0
26/03:30pm 21.8 20.3 15.4 67 4.0 NE 17 26 9 14 1019.1 1014.8 0.0
26/03:00pm 22.1 20.5 14.0 60 4.9 W 15 24 8 13 1019.6 1015.2 0.0
26/02:30pm 24.2 21.5 13.4 51 6.6 W 20 24 11 13 1019.5 1015.1 0.0
26/02:00pm 23.7 20.3 13.6 53 6.2 W 24 32 13 17 1019.6 1015.2 0.0
26/01:30pm 23.8 21.1 13.6 52 6.2 W 20 30 11 16 1019.9 1015.6 0.0
26/01:00pm 23.9 21.1 14.3 55 5.9 W 22 32 12 17 1020.1 1015.8 0.0
26/12:30pm 23.3 20.2 13.5 54 6.0 W 22 28 12 15 1020.6 1016.2 0.0
26/12:00pm 22.7 22.3 14.0 58 5.3 W 9 20 5 11 1020.7 1016.4 0.0
26/11:30am 22.1 22.0 14.0 60 5.0 ENE 7 13 4 7 1021.0 1016.7 0.0
26/11:00am 22.1 20.9 14.0 60 4.9 NE 13 20 7 11 1021.1 1016.8 0.0
26/10:30am 21.3 19.1 14.5 65 4.2 NE 19 28 10 15 1021.0 1016.7 0.0
26/10:00am 20.4 17.2 14.3 68 3.7 ENE 24 32 13 17 1021.0 1016.7 0.0
26/09:30am 19.2 15.8 14.7 75 2.8 ENE 26 35 14 19 1021.3 1016.9 0.0
26/09:00am 18.4 15.7 15.6 84 1.7 ENE 24 32 13 17 1021.5 1017.1 0.0
26/08:30am 17.1 15.2 16.8 98 0.2 ENE 22 28 12 15 1021.6 1017.3 0.0
26/08:15am 16.4 14.3 16.1 98 0.2 ENE 22 28 12 15 1021.5 1017.1 0.0
26/08:00am 16.0 14.3 15.8 99 0.1 E 19 24 10 13 1021.5 1017.1 0.0
26/07:30am 15.2 13.3 15.2 100 0.0 E 19 24 10 13 1021.5 1017.1 0.0
26/07:11am 14.9 12.9 14.9 100 0.0 E 19 24 10 13 1021.3 1016.9 0.0
26/07:00am 14.9 12.7 14.9 100 0.0 E 20 24 11 13 1020.9 1016.6 0.0
26/06:47am 15.0 12.8 15.0 100 0.0 E 20 24 11 13 1020.7 1016.4 0.0
26/06:30am 14.5 12.1 14.5 100 0.0 E 20 24 11 13 1020.7 1016.4 0.0
26/06:00am 14.3 11.9 14.3 100 0.0 E 20 24 11 13 1020.6 1016.2 0.0
26/05:30am 14.2 11.4 14.2 100 0.0 E 22 28 12 15 1020.5 1016.1 0.0
26/05:25am 14.3 11.5 14.3 100 0.0 E 22 28 12 15 1020.4 1016.0 0.0
26/05:00am 14.2 11.7 14.2 100 0.0 E 20 28 11 15 1020.4 1016.0 0.0
26/04:30am 14.2 11.4 14.2 100 0.0 E 22 28 12 15 1020.3 1015.9 0.0
26/04:14am 14.2 11.4 14.2 100 0.0 E 22 28 12 15 1019.9 1015.6 0.0
26/04:00am 14.4 12.0 14.4 100 0.0 E 20 26 11 14 1019.8 1015.4 0.0
26/03:48am 14.3 11.5 14.3 100 0.0 E 22 30 12 16 1020.0 1015.7 0.0
26/03:30am 14.3 11.5 14.3 100 0.0 E 22 30 12 16 1020.3 1015.9 0.0
26/03:25am 14.3 11.5 14.3 100 0.0 E 22 32 12 17 1020.1 1015.8 0.0
26/03:00am 14.4 12.0 14.4 100 0.0 E 20 28 11 15 1020.1 1015.8 0.0
26/02:56am 14.4 12.2 14.4 100 0.0 E 19 26 10 14 1020.1 1015.8 0.0
26/02:30am 14.3 12.1 14.3 100 0.0 E 19 26 10 14 1020.5 1016.1 0.0
26/02:00am 14.5 12.1 14.5 100 0.0 E 20 30 11 16 1020.6 1016.2 0.0
26/01:30am 14.4 11.6 14.4 100 0.0 E 22 32 12 17 1020.9 1016.6 0.0
26/01:00am 14.5 11.8 14.5 100 0.0 E 22 30 12 16 1021.4 1017.0 0.0
26/12:30am 14.5 11.8 14.5 100 0.0 E 22 35 12 19 1021.5 1017.1 0.0
26/12:00am 14.6 11.9 14.6 100 0.0 E 22 30 12 16 1021.7 1017.4 0.0
 
Date/Time
EDT
Temp
°C
App
Temp
°C
Dew
Point
Rel
Hum
%
Delta-T
°C
Wind Press
QNH
hPa
Press
MSL
hPa
Rain
since 9 am
mm
Dir
 
Spd
km/h
Gust
km/h
Spd
kts
Gust
kts
25/11:30pm 14.9 12.7 14.9 100 0.0 E 20 30 11 16 1021.7 1017.4 0.0
25/11:00pm 15.4 12.9 15.2 99 0.1 E 22 30 12 16 1021.8 1017.5 0.0
25/10:55pm 15.4 12.5 15.2 99 0.1 E 24 30 13 16 1021.8 1017.5 0.0
25/10:40pm 15.6 13.2 15.4 99 0.1 E 22 30 12 16 1021.8 1017.5 0.0
25/10:30pm 15.6 12.1 15.4 99 0.1 E 28 33 15 18 1021.6 1017.3 0.0
25/10:00pm 16.3 13.8 16.1 99 0.1 E 24 32 13 17 1021.7 1017.4 0.0
25/09:30pm 17.5 14.5 16.9 96 0.4 E 28 35 15 19 1021.3 1016.9 0.0
25/09:08pm 18.1 15.9 16.9 93 0.8 E 24 33 13 18 1020.9 1016.6 0.0
25/09:00pm 18.3 16.1 16.8 91 0.9 E 24 33 13 18 1020.8 1016.5 0.0
25/08:30pm 19.3 18.0 17.3 88 1.3 E 20 28 11 15 1020.3 1015.9 0.0
25/08:00pm 20.5 18.5 16.5 78 2.5 ESE 22 28 12 15 1020.3 1015.9 0.0
25/07:30pm 21.4 21.2 14.6 65 4.2 SSW 9 13 5 7 1019.9 1015.6 0.0
25/07:00pm 22.0 22.2 14.6 63 4.6 SW 7 13 4 7 1019.5 1015.1 0.0
25/06:30pm 22.2 22.4 14.6 62 4.7 WNW 7 9 4 5 1018.9 1014.5 0.0
25/06:00pm 22.3 21.9 14.2 60 5.0 WNW 9 11 5 6 1018.7 1014.3 0.0
25/05:30pm 22.6 22.2 14.2 59 5.2 NNW 9 11 5 6 1018.5 1014.1 0.0
25/05:00pm 22.9 22.4 13.7 56 5.6 WNW 9 13 5 7 1018.5 1014.1 0.0
25/04:30pm 22.8 22.2 13.6 56 5.6 W 9 15 5 8 1018.5 1014.1 0.0
25/04:00pm 22.9 21.4 14.2 58 5.3 W 15 20 8 11 1018.6 1014.2 0.0
25/03:30pm 22.8 21.5 13.8 57 5.5 W 13 20 7 11 1018.7 1014.3 0.0
25/03:00pm 23.2 21.7 14.2 57 5.5 W 15 20 8 11 1018.8 1014.4 0.0
25/02:30pm 22.6 21.3 14.7 61 4.9 W 15 20 8 11 1018.9 1014.5 0.0
25/02:00pm 22.3 21.0 14.7 62 4.7 W 15 20 8 11 1018.9 1014.5 0.0
25/01:30pm 21.7 20.0 14.8 65 4.3 W 17 20 9 11 1019.3 1014.9 0.0
25/01:00pm 22.1 19.6 14.0 60 4.9 W 20 28 11 15 1019.6 1015.2 0.0
25/12:30pm 22.1 19.6 14.2 61 4.8 WSW 20 28 11 15 1019.7 1015.3 0.0
25/12:00pm 22.1 18.8 14.0 60 4.9 WSW 24 32 13 17 1019.6 1015.2 0.0
25/11:30am 22.9 20.6 14.2 58 5.4 WNW 19 26 10 14 1019.4 1015.0 0.0
25/11:00am 22.4 20.2 14.8 62 4.7 WSW 20 22 11 12 1019.4 1015.0 0.0
25/10:30am 22.0 21.0 14.6 63 4.6 WNW 13 19 7 10 1019.5 1015.1 0.0
25/10:00am 22.1 21.1 14.5 62 4.7 WNW 13 19 7 10 1019.5 1015.1 0.0
25/09:30am 21.8 20.0 14.4 63 4.5 W 17 26 9 14 1019.6 1015.2 0.0
25/09:00am 21.5 19.9 14.9 66 4.1 W 17 20 9 11 1019.5 1015.1 4.4
25/08:30am 21.4 19.7 14.6 65 4.2 WSW 17 24 9 13 1019.3 1014.9 4.4
25/08:00am 20.8 19.6 15.1 70 3.5 W 15 20 8 11 1019.1 1014.8 4.4
25/07:30am 20.4 20.0 15.2 72 3.2 WNW 11 15 6 8 1018.6 1014.2 4.4
25/07:00am 19.1 19.7 15.8 81 2.1 NW 7 11 4 6 1018.1 1013.7 4.4
25/06:30am 17.5 18.4 16.0 91 0.9 NNW 6 9 3 5 1017.9 1013.5 4.4
25/06:00am 16.9 16.5 15.1 89 1.1 N 11 11 6 6 1017.7 1013.3 4.4
25/05:30am 16.7 18.4 15.2 91 0.9 CALM 0 0 0 0 1017.5 1013.1 4.4
25/05:00am 17.1 17.7 15.3 89 1.1 NNW 6 7 3 4 1017.1 1012.7 4.4
25/04:30am 17.0 17.7 15.7 92 0.8 NNW 6 7 3 4 1017.3 1012.8 4.4
25/04:00am 16.9 18.6 16.3 96 0.4 WNW 2 7 1 4 1017.1 1012.7 4.4
25/03:30am 17.2 17.6 16.2 94 0.6 W 9 13 5 7 1017.0 1012.6 4.4
25/03:00am 17.4 18.2 16.3 93 0.7 WNW 7 9 4 5 1017.3 1012.8 4.4

Other Formats:

Comma delimited format used in spreadsheet applications
http://www.bom.gov.au/fwo/IDN60801/IDN60801.95773.axf

JavaScript Object Notation format (JSON) in row-major order
http://www.bom.gov.au/fwo/IDN60801/IDN60801.95773.json